Terminal Aerodrome Forecast
Issued by NWS

Home | Current Version | Previous Version | Text Only | Print | Product List | Glossary On
Versions: 1 2 3 4 5 6 7 8 9 10 11 12 13 14 15 16 17 18 19
000
FTUS46 KMTR 171100
TAFSTS
TAF
KSTS 171139Z 1712/1812 00000KT P6SM OVC008
     FM171800 00000KT P6SM FEW011
     FM172100 18009KT P6SM SCT050
     FM180500 15007KT P6SM OVC007 PROB30 1805/1808 P6SM -RA OVC050
     FM180800 15006KT P6SM -SHRA OVC007=

USA.gov is the U.S. government's official web portal to all federal, state and local government web resources and services.